Time;durP1;ratioP1;P1;durP2;ratioP2;P2;SDS_P1;SDS_P2;PMS_P1;PMS_P2;Temp;Humidity;BMP_temperature;BMP_pressure;BME280_temperature;BME280_humidity;BME280_pressure;Samples;Min_cycle;Max_cycle;Signal;HPM_P1;HPM_P2
2021/09/04 00:02:11;;;;;;;9.40;5.50;;;;;;;14.03;76.38;96825.65;115858;1189;58049;-88
2021/09/04 00:04:43;;;;;;;7.50;4.80;;;;;;;14.05;76.48;96822.14;114472;1190;1801737;-88
2021/09/04 00:07:11;;;;;;;8.20;5.40;;;;;;;14.07;76.47;96818.21;115770;1189;71196;-87
2021/09/04 00:09:39;;;;;;;10.50;5.80;;;;;;;14.08;76.47;96816.02;115845;1195;70797;-88
2021/09/04 00:12:09;;;;;;;9.30;5.60;;;;;;;14.05;76.58;96814.80;114348;1189;1983903;-88
2021/09/04 00:14:37;;;;;;;7.40;5.10;;;;;;;13.98;76.56;96807.30;115927;1193;41859;-87
2021/09/04 00:17:08;;;;;;;8.60;5.50;;;;;;;13.94;76.74;96806.52;115962;1188;27039;-88
2021/09/04 00:19:37;;;;;;;9.50;5.90;;;;;;;13.87;76.81;96809.69;115678;1184;95313;-89
2021/09/04 00:22:06;;;;;;;8.40;5.80;;;;;;;13.82;77.07;96809.13;115887;1195;70208;-88
2021/09/04 00:24:34;;;;;;;9.30;5.40;;;;;;;13.74;77.21;96808.95;115811;1184;66691;-87
2021/09/04 00:27:03;;;;;;;9.00;5.60;;;;;;;13.69;77.43;96806.16;115821;1189;54640;-87
2021/09/04 00:29:32;;;;;;;8.40;5.30;;;;;;;13.67;77.71;96807.27;115836;1184;36934;-88
2021/09/04 00:32:04;;;;;;;10.90;6.30;;;;;;;13.69;77.90;96807.19;115670;1185;84219;-88
2021/09/04 00:34:32;;;;;;;8.40;5.50;;;;;;;13.68;77.71;96811.20;115849;1189;38451;-88
2021/09/04 00:37:01;;;;;;;10.20;6.00;;;;;;;13.67;77.91;96810.94;115847;1188;48606;-88
2021/09/04 00:39:29;;;;;;;8.10;5.50;;;;;;;13.66;77.90;96812.14;115831;1189;60305;-88
2021/09/04 00:41:59;;;;;;;7.40;5.30;;;;;;;13.65;77.94;96811.44;115807;1189;73569;-88
2021/09/04 00:44:27;;;;;;;9.20;6.00;;;;;;;13.67;78.03;96808.70;115794;1189;53953;-88
2021/09/04 00:47:02;;;;;;;10.90;5.90;;;;;;;13.66;78.14;96809.80;115827;1190;45693;-89
2021/09/04 00:49:34;;;;;;;8.70;5.40;;;;;;;13.68;78.18;96809.02;115801;1189;48349;-89
2021/09/04 00:52:02;;;;;;;11.00;6.00;;;;;;;13.66;78.12;96816.61;115840;1189;63965;-88
2021/09/04 00:54:31;;;;;;;8.50;5.90;;;;;;;13.63;78.16;96813.23;114572;1189;1563724;-88
2021/09/04 00:57:00;;;;;;;11.20;6.00;;;;;;;13.57;78.33;96811.36;115912;1188;27635;-88
2021/09/04 00:59:29;;;;;;;8.50;5.80;;;;;;;13.53;78.41;96811.40;115802;1189;54484;-88
2021/09/04 01:01:57;;;;;;;9.50;6.20;;;;;;;13.56;78.46;96810.65;115649;1184;76429;-87
2021/09/04 01:04:26;;;;;;;9.20;5.70;;;;;;;13.63;78.67;96805.77;115858;1189;51809;-88
2021/09/04 01:06:54;;;;;;;7.90;5.50;;;;;;;13.72;78.55;96807.02;114319;1187;1939816;-89
2021/09/04 01:09:23;;;;;;;14.20;5.80;;;;;;;13.77;78.31;96811.30;115896;1189;53353;-88
2021/09/04 01:11:51;;;;;;;10.30;6.10;;;;;;;13.79;78.24;96812.00;114385;1183;1897983;-87
2021/09/04 01:14:20;;;;;;;9.80;5.70;;;;;;;13.80;78.13;96810.99;115904;1190;26469;-87
2021/09/04 01:16:49;;;;;;;9.10;6.50;;;;;;;13.81;78.09;96815.17;115837;1189;60422;-88
2021/09/04 01:19:17;;;;;;;9.30;5.40;;;;;;;13.83;77.97;96818.70;115922;1189;26709;-88
2021/09/04 01:21:45;;;;;;;8.70;5.80;;;;;;;13.84;77.93;96820.19;115858;1189;49605;-89
2021/09/04 01:24:13;;;;;;;7.90;5.20;;;;;;;13.84;77.90;96814.58;115963;1189;29416;-89
2021/09/04 01:26:41;;;;;;;9.10;5.60;;;;;;;13.84;77.84;96818.81;114109;1180;2201182;-89
2021/09/04 01:29:10;;;;;;;11.70;6.40;;;;;;;13.83;77.90;96812.85;115877;1195;94456;-88
2021/09/04 01:31:39;;;;;;;8.70;5.30;;;;;;;13.86;77.89;96813.44;115931;1189;25095;-88
2021/09/04 01:34:08;;;;;;;9.50;5.40;;;;;;;13.83;77.74;96812.84;115782;1185;68779;-88
2021/09/04 01:36:39;;;;;;;11.70;6.00;;;;;;;13.81;77.92;96809.05;115949;1189;47404;-88
2021/09/04 01:39:07;;;;;;;;;;;;;;;13.80;77.95;96810.55;113116;1189;3558298;-88
2021/09/04 01:41:37;;;;;;;10.30;6.00;;;;;;;13.79;77.98;96817.12;111982;1184;2614574;-87
2021/09/04 01:44:06;;;;;;;8.20;5.60;;;;;;;13.79;77.95;96817.02;114127;1190;2005621;-88
2021/09/04 01:46:34;;;;;;;8.60;5.80;;;;;;;13.81;78.04;96817.11;115830;1193;50139;-88
2021/09/04 01:49:04;;;;;;;9.60;5.70;;;;;;;13.82;77.93;96812.33;115780;1189;96617;-88
2021/09/04 01:51:32;;;;;;;8.20;5.60;;;;;;;13.84;77.90;96810.38;115850;1189;30156;-87
2021/09/04 01:54:00;;;;;;;9.80;5.90;;;;;;;13.86;77.86;96803.94;115790;1195;60717;-88
2021/09/04 01:56:29;;;;;;;7.80;5.10;;;;;;;13.87;77.84;96801.25;115730;1189;55986;-88
2021/09/04 01:58:57;;;;;;;9.60;6.00;;;;;;;13.87;77.85;96804.04;115816;1184;40408;-89
2021/09/04 02:01:25;;;;;;;9.00;6.00;;;;;;;13.87;77.85;96798.42;115871;1189;25242;-88
2021/09/04 02:03:54;;;;;;;9.20;5.80;;;;;;;13.87;77.80;96795.17;115890;1188;41365;-89
2021/09/04 02:06:22;;;;;;;8.80;5.80;;;;;;;13.87;77.71;96793.85;115878;1188;44842;-88
2021/09/04 02:08:50;;;;;;;8.50;5.70;;;;;;;13.84;77.69;96793.77;115888;1189;27740;-88
2021/09/04 02:11:18;;;;;;;9.20;6.10;;;;;;;13.81;77.68;96795.52;115797;1189;76272;-88
2021/09/04 02:13:46;;;;;;;8.60;5.90;;;;;;;13.77;77.72;96792.05;115793;1189;89611;-88
2021/09/04 02:16:15;;;;;;;11.00;5.70;;;;;;;13.74;77.79;96790.52;114554;1189;1684607;-88
2021/09/04 02:18:44;;;;;;;8.00;5.50;;;;;;;13.74;77.96;96790.73;115819;1185;52303;-88
2021/09/04 02:21:13;;;;;;;9.70;5.30;;;;;;;13.75;77.89;96785.26;115786;1189;56964;-87
2021/09/04 02:23:46;;;;;;;9.00;5.20;;;;;;;13.77;77.92;96783.99;114203;1183;2080362;-87
2021/09/04 02:26:14;;;;;;;11.90;5.80;;;;;;;13.76;77.94;96783.45;114441;1184;1782525;-88
2021/09/04 02:28:42;;;;;;;9.20;5.40;;;;;;;13.70;77.93;96789.94;115819;1188;52677;-87
2021/09/04 02:31:11;;;;;;;9.50;5.90;;;;;;;13.67;78.07;96786.02;115883;1187;72175;-88
2021/09/04 02:33:39;;;;;;;8.40;5.40;;;;;;;13.64;77.99;96789.92;115851;1185;81326;-88
2021/09/04 02:36:07;;;;;;;8.70;5.90;;;;;;;13.63;77.98;96791.17;115897;1190;59628;-88
2021/09/04 02:38:35;;;;;;;8.00;5.40;;;;;;;13.63;78.12;96791.00;115811;1189;51716;-86
2021/09/04 02:41:03;;;;;;;9.10;5.50;;;;;;;13.64;78.20;96786.14;115851;1189;47504;-87
2021/09/04 02:43:32;;;;;;;7.20;5.00;;;;;;;13.60;78.13;96783.81;115738;1188;52560;-88
2021/09/04 02:46:00;;;;;;;9.10;5.70;;;;;;;13.57;78.21;96785.85;115926;1189;28040;-89
2021/09/04 02:48:28;;;;;;;8.60;5.40;;;;;;;13.55;78.15;96785.79;114889;1189;1106626;-88
2021/09/04 02:50:56;;;;;;;8.30;5.60;;;;;;;13.52;78.47;96782.64;115792;1189;56392;-88
2021/09/04 02:53:25;;;;;;;8.60;5.60;;;;;;;13.49;78.44;96791.61;115776;1190;65839;-88
2021/09/04 02:55:53;;;;;;;7.80;5.00;;;;;;;13.47;78.55;96794.32;115853;1195;31870;-88
2021/09/04 02:58:21;;;;;;;9.80;6.50;;;;;;;13.47;78.82;96792.93;115822;1189;53709;-88
2021/09/04 03:00:49;;;;;;;8.80;6.30;;;;;;;13.47;78.80;96792.15;115889;1193;33513;-87
2021/09/04 03:03:18;;;;;;;11.10;6.00;;;;;;;13.48;78.99;96787.73;115917;1189;27414;-88
2021/09/04 03:05:46;;;;;;;10.60;5.50;;;;;;;13.50;79.00;96789.27;115857;1189;35902;-87
2021/09/04 03:08:14;;;;;;;9.40;5.90;;;;;;;13.51;79.15;96778.12;115847;1189;27742;-88
2021/09/04 03:10:43;;;;;;;8.30;5.50;;;;;;;13.55;79.11;96781.04;115841;1196;25485;-88
2021/09/04 03:13:11;;;;;;;10.60;6.10;;;;;;;13.55;79.01;96775.91;115994;1188;26533;-88
2021/09/04 03:15:39;;;;;;;8.50;5.50;;;;;;;13.54;78.89;96773.24;116060;1195;28116;-88
2021/09/04 03:18:07;;;;;;;10.30;6.30;;;;;;;13.53;78.86;96775.02;115974;1191;26992;-86
2021/09/04 03:20:36;;;;;;;7.30;5.00;;;;;;;13.55;78.92;96770.17;115910;1189;27034;-88
2021/09/04 03:23:04;;;;;;;7.80;5.60;;;;;;;13.56;78.88;96771.42;115889;1189;43097;-88
2021/09/04 03:25:33;;;;;;;8.30;5.60;;;;;;;13.56;78.96;96767.97;114175;1183;2001675;-88
2021/09/04 03:28:01;;;;;;;9.30;5.80;;;;;;;13.52;79.01;96772.20;115814;1184;45192;-87
2021/09/04 03:30:29;;;;;;;10.60;5.70;;;;;;;13.45;79.11;96767.30;115884;1187;44852;-88
2021/09/04 03:32:58;;;;;;;9.40;5.70;;;;;;;13.41;79.27;96767.42;115884;1189;30542;-88
2021/09/04 03:35:26;;;;;;;7.00;5.40;;;;;;;13.39;79.38;96765.39;115849;1189;46918;-89
2021/09/04 03:37:54;;;;;;;7.90;5.20;;;;;;;13.35;79.46;96769.32;115808;1183;50027;-88
2021/09/04 03:40:23;;;;;;;7.40;5.40;;;;;;;13.29;79.59;96771.67;115908;1189;52749;-88
2021/09/04 03:42:51;;;;;;;8.40;5.70;;;;;;;13.28;79.85;96780.48;115889;1190;60615;-88
2021/09/04 03:45:19;;;;;;;8.20;5.70;;;;;;;13.29;79.94;96783.34;115780;1195;77305;-88
2021/09/04 03:47:47;;;;;;;9.50;5.70;;;;;;;13.28;79.84;96790.01;115762;1183;85348;-88
2021/09/04 03:50:16;;;;;;;8.10;5.60;;;;;;;13.28;79.87;96790.65;115842;1195;67423;-89
2021/09/04 03:52:44;;;;;;;9.00;5.80;;;;;;;13.28;79.88;96789.85;114286;1189;1946336;-89
2021/09/04 03:55:13;;;;;;;10.20;5.50;;;;;;;13.32;79.88;96791.42;115769;1189;73346;-88
2021/09/04 03:57:42;;;;;;;9.00;5.60;;;;;;;13.33;79.89;96792.36;115754;1188;57597;-87
2021/09/04 04:00:12;;;;;;;9.00;5.70;;;;;;;13.32;79.88;96793.98;114333;1184;1570587;-88
2021/09/04 04:02:40;;;;;;;7.60;5.30;;;;;;;13.32;79.87;96794.20;115899;1182;48847;-89
2021/09/04 04:05:10;;;;;;;9.50;5.50;;;;;;;13.32;79.97;96799.45;115848;1193;50475;-89
2021/09/04 04:07:39;;;;;;;10.30;6.20;;;;;;;13.32;80.07;96802.71;115814;1188;71221;-89
2021/09/04 04:10:10;;;;;;;9.40;6.20;;;;;;;13.31;80.24;96801.61;115878;1188;54449;-90
2021/09/04 04:12:42;;;;;;;15.80;10.70;;;;;;;13.28;80.19;96804.77;115910;1188;30743;-88
2021/09/04 04:15:11;;;;;;;10.50;7.70;;;;;;;13.25;80.23;96803.27;115983;1180;28945;-89
2021/09/04 04:17:39;;;;;;;10.70;6.60;;;;;;;13.26;80.40;96797.88;115962;1189;26223;-88
2021/09/04 04:20:10;;;;;;;8.20;5.30;;;;;;;13.29;80.65;96799.64;114591;1189;1644111;-88
2021/09/04 04:22:38;;;;;;;9.90;6.10;;;;;;;13.20;80.72;96798.64;115936;1189;61654;-88
2021/09/04 04:25:09;;;;;;;6.40;4.80;;;;;;;13.05;81.07;96799.33;115906;1188;65037;-88
2021/09/04 04:27:38;;;;;;;7.90;5.80;;;;;;;12.98;81.69;96804.11;115875;1189;57424;-87
2021/09/04 04:30:09;;;;;;;9.30;6.00;;;;;;;12.97;82.01;96808.34;115831;1189;74135;-88
2021/09/04 04:32:36;;;;;;;;;;;;;;;12.95;82.11;96806.92;115056;1189;1161995;-89
2021/09/04 04:35:05;;;;;;;11.40;6.70;;;;;;;12.90;82.10;96806.62;116465;1184;48741;-88
2021/09/04 04:37:34;;;;;;;10.50;6.20;;;;;;;12.91;82.03;96808.77;116396;1188;29880;-88
2021/09/04 04:40:07;;;;;;;8.60;5.70;;;;;;;12.92;81.94;96815.63;116265;1184;65629;-88
2021/09/04 04:42:38;;;;;;;10.20;5.70;;;;;;;12.91;81.91;96817.40;113999;1196;2075269;-88
2021/09/04 04:45:08;;;;;;;10.10;6.00;;;;;;;12.97;81.99;96820.52;115964;1189;28704;-88
2021/09/04 04:47:36;;;;;;;8.20;5.10;;;;;;;13.01;81.69;96818.48;115786;1195;62397;-88
2021/09/04 04:50:05;;;;;;;8.30;5.40;;;;;;;13.03;81.59;96814.88;115803;1188;47798;-88
2021/09/04 04:52:34;;;;;;;25.50;18.10;;;;;;;13.00;81.54;96820.31;115793;1188;28642;-88
2021/09/04 04:55:03;;;;;;;17.10;11.60;;;;;;;12.97;81.80;96818.83;115812;1188;57659;-87
2021/09/04 04:57:31;;;;;;;8.70;5.80;;;;;;;12.97;82.03;96824.52;115794;1188;53579;-88
2021/09/04 04:59:59;;;;;;;10.60;5.70;;;;;;;13.01;82.24;96819.23;114169;1189;2102078;-88
2021/09/04 05:02:28;;;;;;;9.50;5.60;;;;;;;13.05;82.26;96819.27;115808;1184;51831;-88
2021/09/04 05:04:56;;;;;;;10.10;6.00;;;;;;;13.13;82.25;96816.89;114319;1189;1672144;-89
2021/09/04 05:07:25;;;;;;;12.00;6.00;;;;;;;13.18;82.23;96813.63;115778;1188;55703;-88
2021/09/04 05:09:53;;;;;;;10.20;6.40;;;;;;;13.23;82.20;96818.52;115809;1188;68271;-89
2021/09/04 05:12:21;;;;;;;8.40;6.10;;;;;;;13.31;82.22;96817.23;114572;1189;1667011;-89
2021/09/04 05:14:50;;;;;;;9.30;6.00;;;;;;;13.37;82.03;96817.23;115802;1195;49785;-88
2021/09/04 05:17:20;;;;;;;7.80;5.30;;;;;;;13.39;82.01;96822.65;115799;1188;72468;-88
2021/09/04 05:19:47;;;;;;;;;;;;;;;13.37;82.10;96826.98;115792;1194;76766;-89
2021/09/04 05:22:16;;;;;;;9.10;5.90;;;;;;;13.49;82.26;96823.34;115578;1184;79861;-89
2021/09/04 05:24:44;;;;;;;9.20;5.90;;;;;;;14.50;82.80;96817.27;115788;1188;53078;-88
2021/09/04 05:27:12;;;;;;;8.80;5.50;;;;;;;15.19;80.38;96815.46;115904;1188;29402;-87
2021/09/04 05:29:40;;;;;;;7.80;5.30;;;;;;;15.64;79.41;96814.27;115899;1188;28955;-89
2021/09/04 05:32:09;;;;;;;8.10;5.70;;;;;;;16.60;78.04;96814.30;115937;1192;30750;-87
2021/09/04 05:34:41;;;;;;;8.60;5.40;;;;;;;16.79;76.19;96814.34;114507;1188;1635331;-86
2021/09/04 05:37:11;;;;;;;7.60;5.30;;;;;;;16.75;74.58;96814.27;115992;1183;51210;-87
2021/09/04 05:39:41;;;;;;;8.10;5.60;;;;;;;17.22;74.69;96814.71;105095;1189;6384495;-86
2021/09/04 05:42:10;;;;;;;6.90;4.50;;;;;;;18.48;73.78;96804.46;115876;1188;61251;-86
2021/09/04 05:44:38;;;;;;;9.10;4.50;;;;;;;19.60;71.76;96808.42;114303;1188;1878739;-86
2021/09/04 05:47:06;;;;;;;5.80;4.30;;;;;;;20.74;70.42;96807.80;115822;1190;59608;-87
2021/09/04 05:49:35;;;;;;;7.60;4.90;;;;;;;21.51;67.72;96805.67;115836;1188;65408;-87
2021/09/04 05:52:04;;;;;;;7.20;4.90;;;;;;;21.16;65.44;96802.98;115788;1184;54371;-88
2021/09/04 05:54:32;;;;;;;6.10;4.10;;;;;;;21.41;65.57;96808.70;115794;1188;51771;-86
2021/09/04 05:57:01;;;;;;;7.30;4.50;;;;;;;21.58;63.38;96810.48;115752;1188;57992;-86
2021/09/04 05:59:29;;;;;;;6.30;4.30;;;;;;;21.04;62.95;96808.02;115784;1189;57588;-86
2021/09/04 06:01:58;;;;;;;6.90;4.90;;;;;;;20.34;61.80;96808.61;115885;1188;54041;-86
2021/09/04 06:04:26;;;;;;;6.90;4.30;;;;;;;20.38;63.57;96813.05;115890;1188;24509;-86
2021/09/04 06:06:54;;;;;;;8.10;4.50;;;;;;;21.40;63.44;96810.99;115798;1190;23950;-87
2021/09/04 06:09:23;;;;;;;6.10;4.20;;;;;;;21.32;60.83;96814.86;115868;1188;24666;-85
2021/09/04 06:11:51;;;;;;;8.40;5.20;;;;;;;20.58;60.27;96817.95;115875;1188;27028;-85
2021/09/04 06:14:19;;;;;;;6.40;4.70;;;;;;;20.22;61.21;96819.88;115959;1189;24557;-88
2021/09/04 06:16:48;;;;;;;5.80;4.30;;;;;;;21.47;62.19;96821.03;115853;1189;24174;-90
2021/09/04 06:19:16;;;;;;;7.20;5.00;;;;;;;22.61;59.32;96816.73;115867;1188;26794;-87
2021/09/04 06:21:44;;;;;;;6.10;4.60;;;;;;;22.44;58.41;96815.18;115837;1189;28738;-89
2021/09/04 06:24:13;;;;;;;6.30;4.90;;;;;;;22.29;58.64;96818.60;115911;1184;35280;-86
2021/09/04 06:26:41;;;;;;;6.40;4.50;;;;;;;22.92;58.10;96809.27;115988;1192;26221;-89
2021/09/04 06:29:09;;;;;;;5.10;4.00;;;;;;;23.25;57.00;96807.28;115935;1188;22430;-87
2021/09/04 06:31:37;;;;;;;7.60;5.00;;;;;;;23.64;56.85;96804.89;115971;1188;23138;-86
2021/09/04 06:34:06;;;;;;;8.00;4.50;;;;;;;24.10;55.94;96796.97;115907;1187;23419;-87
2021/09/04 06:36:34;;;;;;;6.20;4.30;;;;;;;25.04;55.02;96802.63;115984;1184;23457;-86
2021/09/04 06:39:02;;;;;;;5.10;4.30;;;;;;;26.00;54.29;96805.30;115896;1188;23512;-86
2021/09/04 06:41:30;;;;;;;5.90;4.50;;;;;;;27.11;52.51;96805.78;115926;1189;22721;-86
2021/09/04 06:43:59;;;;;;;5.80;4.80;;;;;;;27.80;51.22;96801.56;115859;1188;23655;-86
2021/09/04 06:46:31;;;;;;;5.70;4.40;;;;;;;28.69;50.09;96803.52;115890;1188;22527;-89
2021/09/04 06:49:00;;;;;;;7.10;4.40;;;;;;;29.52;48.79;96803.79;115897;1188;25530;-87
2021/09/04 06:51:29;;;;;;;6.60;4.20;;;;;;;30.28;47.45;96805.55;115984;1188;27498;-87
2021/09/04 06:53:57;;;;;;;5.60;4.40;;;;;;;30.82;46.09;96810.11;115966;1194;23421;-86
2021/09/04 06:56:26;;;;;;;5.40;4.30;;;;;;;31.25;44.29;96812.98;115953;1187;24023;-87
2021/09/04 06:58:54;;;;;;;5.80;4.10;;;;;;;31.40;43.08;96817.27;115895;1188;24126;-87
2021/09/04 07:01:22;;;;;;;5.80;4.10;;;;;;;31.41;42.51;96819.05;115810;1190;25394;-86
2021/09/04 07:03:51;;;;;;;6.60;4.50;;;;;;;31.70;42.15;96819.48;115890;1188;25686;-86
2021/09/04 07:06:19;;;;;;;5.80;4.20;;;;;;;32.27;41.29;96815.64;115834;1196;23850;-87
2021/09/04 07:08:47;;;;;;;6.50;4.50;;;;;;;32.50;39.81;96820.31;115837;1188;40492;-88
2021/09/04 07:11:16;;;;;;;6.60;4.60;;;;;;;32.61;39.32;96818.95;115855;1188;25008;-86
2021/09/04 07:13:44;;;;;;;5.70;4.40;;;;;;;32.90;38.90;96823.89;115930;1188;22422;-85
2021/09/04 07:16:12;;;;;;;6.90;4.90;;;;;;;33.31;38.59;96821.88;115905;1189;24230;-86
2021/09/04 07:18:40;;;;;;;8.00;5.20;;;;;;;33.62;37.32;96819.85;115940;1188;22904;-86
2021/09/04 07:21:09;;;;;;;6.90;4.90;;;;;;;33.78;36.49;96824.23;115978;1188;22666;-87
2021/09/04 07:23:38;;;;;;;8.70;5.10;;;;;;;34.00;36.78;96823.05;115984;1188;24035;-86
2021/09/04 07:26:06;;;;;;;6.40;5.10;;;;;;;34.52;36.78;96821.86;115912;1187;22604;-86
2021/09/04 07:28:34;;;;;;;7.90;5.10;;;;;;;34.39;35.02;96821.77;115907;1188;24250;-87
2021/09/04 07:31:03;;;;;;;7.20;5.30;;;;;;;34.02;35.39;96821.67;115868;1188;23878;-87
2021/09/04 07:33:31;;;;;;;6.50;5.10;;;;;;;32.42;34.55;96821.36;115900;1188;22452;-87
2021/09/04 07:35:59;;;;;;;9.00;5.60;;;;;;;29.93;36.49;96825.65;115891;1188;24696;-87
2021/09/04 07:38:28;;;;;;;9.90;5.40;;;;;;;29.95;38.17;96825.14;115918;1188;25260;-87
2021/09/04 07:40:56;;;;;;;8.30;5.50;;;;;;;29.20;37.58;96826.41;115885;1187;23649;-86
2021/09/04 07:43:24;;;;;;;8.50;5.40;;;;;;;27.36;39.50;96829.56;115919;1189;23981;-87
2021/09/04 07:45:53;;;;;;;8.00;5.30;;;;;;;27.00;40.43;96829.98;115885;1188;38120;-87
2021/09/04 07:48:21;;;;;;;8.80;5.60;;;;;;;26.55;42.07;96835.11;115862;1188;24825;-86
2021/09/04 07:50:49;;;;;;;9.20;5.90;;;;;;;26.71;41.89;96838.48;115881;1184;35625;-87
2021/09/04 07:53:18;;;;;;;8.60;5.80;;;;;;;25.48;42.38;96838.08;115958;1188;23540;-86
2021/09/04 07:55:46;;;;;;;8.00;5.90;;;;;;;24.86;44.60;96840.59;115901;1188;23459;-86
2021/09/04 07:58:14;;;;;;;8.40;6.40;;;;;;;24.56;44.72;96838.09;115913;1188;22497;-85
2021/09/04 08:00:43;;;;;;;10.70;6.50;;;;;;;23.97;46.10;96840.70;115951;1189;22884;-86
2021/09/04 08:03:11;;;;;;;8.80;6.70;;;;;;;23.36;46.51;96840.19;115991;1188;23593;-86
2021/09/04 08:05:39;;;;;;;9.00;6.20;;;;;;;22.73;48.26;96845.34;115952;1188;23520;-86
2021/09/04 08:08:07;;;;;;;9.70;6.10;;;;;;;23.25;48.19;96846.05;115890;1188;31894;-86
2021/09/04 08:10:38;;;;;;;9.10;5.90;;;;;;;22.84;48.30;96848.79;115878;1188;27679;-86
2021/09/04 08:13:07;;;;;;;8.70;6.00;;;;;;;23.11;49.56;96847.68;115943;1187;23936;-86
2021/09/04 08:15:35;;;;;;;10.10;6.80;;;;;;;23.78;49.38;96847.23;115878;1188;22858;-87
2021/09/04 08:18:03;;;;;;;9.30;6.40;;;;;;;23.83;49.13;96844.27;115937;1188;24018;-86
2021/09/04 08:20:32;;;;;;;10.30;6.70;;;;;;;24.07;49.02;96844.38;115901;1188;25772;-85
2021/09/04 08:23:01;;;;;;;9.00;6.80;;;;;;;23.40;49.11;96847.16;115950;1188;22543;-86
2021/09/04 08:25:29;;;;;;;8.90;6.50;;;;;;;22.56;50.17;96850.91;115889;1188;23079;-86
2021/09/04 08:27:58;;;;;;;9.90;6.90;;;;;;;22.32;51.49;96853.79;115898;1188;23938;-85
2021/09/04 08:30:26;;;;;;;9.10;6.40;;;;;;;22.73;52.30;96849.68;115915;1187;26790;-85
2021/09/04 08:32:54;;;;;;;11.10;7.00;;;;;;;23.00;51.22;96847.70;115923;1188;23517;-86
2021/09/04 08:35:23;;;;;;;9.80;7.00;;;;;;;23.04;50.56;96849.95;115920;1188;25095;-85
2021/09/04 08:37:53;;;;;;;10.00;6.90;;;;;;;22.68;51.03;96855.73;115893;1188;24637;-86
2021/09/04 08:40:22;;;;;;;8.80;6.50;;;;;;;22.74;52.68;96855.64;115916;1189;24943;-85
2021/09/04 08:42:51;;;;;;;9.70;6.60;;;;;;;23.22;52.79;96858.05;115873;1188;88482;-85
2021/09/04 08:45:19;;;;;;;8.70;6.70;;;;;;;23.75;52.46;96858.55;115836;1188;24213;-85
2021/09/04 08:47:51;;;;;;;10.50;7.20;;;;;;;23.70;52.05;96857.83;115781;1196;22456;-81
2021/09/04 08:50:21;;;;;;;9.00;6.70;;;;;;;23.11;51.17;96862.06;115855;1188;25243;-81
2021/09/04 08:52:51;;;;;;;9.90;6.80;;;;;;;22.14;51.86;96863.71;115929;1188;26470;-82
2021/09/04 08:55:20;;;;;;;12.90;8.00;;;;;;;21.61;53.81;96864.77;115933;1188;24869;-81
2021/09/04 08:57:48;;;;;;;11.80;7.90;;;;;;;21.44;54.63;96864.13;115895;1188;23492;-81
2021/09/04 09:00:29;;;;;;;12.50;7.60;;;;;;;21.17;55.63;96865.63;115900;1188;23121;-81
2021/09/04 09:02:57;;;;;;;9.90;7.20;;;;;;;20.75;56.34;96868.89;115954;1192;22867;-81
2021/09/04 09:05:26;;;;;;;11.20;7.80;;;;;;;20.47;57.36;96873.48;115957;1187;26163;-81
2021/09/04 09:07:54;;;;;;;13.30;9.10;;;;;;;20.27;58.09;96874.54;115952;1194;22516;-81
2021/09/04 09:10:34;;;;;;;14.60;8.80;;;;;;;20.29;58.81;96871.60;115950;1188;22555;-82
2021/09/04 09:13:03;;;;;;;10.30;7.50;;;;;;;20.47;58.93;96867.94;115967;1191;22592;-82
2021/09/04 09:15:34;;;;;;;11.30;7.70;;;;;;;20.59;58.58;96876.71;115915;1188;22420;-81
2021/09/04 09:18:03;;;;;;;;;;;;;;;20.88;58.71;96872.98;115937;1188;23434;-81
2021/09/04 09:20:32;;;;;;;11.90;8.50;;;;;;;21.21;58.39;96872.61;115909;1188;23582;-82
2021/09/04 09:23:10;;;;;;;10.30;7.50;;;;;;;21.20;57.51;96869.89;115851;1188;55742;-81
2021/09/04 09:25:39;;;;;;;10.50;7.40;;;;;;;21.15;57.23;96871.90;115928;1188;52918;-81
2021/09/04 09:28:11;;;;;;;12.60;7.90;;;;;;;21.19;57.16;96874.73;115827;1188;56784;-81
2021/09/04 09:30:42;;;;;;;11.70;8.10;;;;;;;20.99;56.73;96871.86;115936;1184;54036;-81
2021/09/04 09:33:12;;;;;;;12.60;7.80;;;;;;;20.78;56.99;96869.47;115958;1188;51254;-81
2021/09/04 09:35:43;;;;;;;11.60;8.10;;;;;;;20.65;57.93;96869.20;115917;1188;51355;-81
2021/09/04 09:38:13;;;;;;;10.00;7.20;;;;;;;20.59;58.83;96873.85;115960;1188;35949;-81
2021/09/04 09:40:42;;;;;;;10.20;7.40;;;;;;;20.67;59.68;96874.95;116001;1188;29622;-81
2021/09/04 09:43:16;;;;;;;12.10;7.80;;;;;;;20.64;58.19;96879.86;115988;1188;49804;-81
2021/09/04 09:45:50;;;;;;;10.00;7.50;;;;;;;20.35;57.62;96874.64;115958;1188;25014;-83
2021/09/04 09:48:20;;;;;;;12.40;8.50;;;;;;;20.11;57.92;96875.19;116017;1188;46232;-84
2021/09/04 09:50:48;;;;;;;;;;;;;;;20.04;58.95;96875.23;116700;1189;51482;-84
2021/09/04 09:53:18;;;;;;;10.30;6.80;;;;;;;20.37;60.12;96875.98;115910;1189;25807;-85
2021/09/04 09:55:49;;;;;;;11.60;7.70;;;;;;;20.87;59.84;96870.03;115819;1188;53746;-84
2021/09/04 09:58:19;;;;;;;10.10;7.50;;;;;;;21.18;59.34;96869.04;115841;1188;53080;-84
2021/09/04 10:00:48;;;;;;;11.70;8.10;;;;;;;21.21;58.39;96871.75;115869;1188;49719;-84
2021/09/04 10:03:18;;;;;;;11.50;8.10;;;;;;;21.04;56.17;96870.48;115894;1188;25053;-85
2021/09/04 10:05:47;;;;;;;11.80;8.30;;;;;;;20.76;56.80;96872.39;115931;1188;28005;-85
2021/09/04 10:08:16;;;;;;;11.70;8.30;;;;;;;20.65;57.99;96878.07;115935;1188;24937;-84
2021/09/04 10:10:45;;;;;;;12.20;8.20;;;;;;;20.73;58.84;96878.77;115885;1188;26814;-83
2021/09/04 10:13:14;;;;;;;14.60;7.70;;;;;;;20.85;59.12;96879.22;115951;1195;30034;-83
2021/09/04 10:15:46;;;;;;;10.70;8.10;;;;;;;21.11;59.45;96878.48;115948;1188;25062;-85
2021/09/04 10:18:16;;;;;;;11.00;7.80;;;;;;;21.34;59.12;96875.59;115934;1187;24113;-84
2021/09/04 10:20:45;;;;;;;12.50;8.40;;;;;;;21.59;59.21;96870.89;115876;1188;27263;-84
2021/09/04 10:23:22;;;;;;;10.40;8.40;;;;;;;21.76;58.58;96871.98;115933;1195;25344;-84
2021/09/04 10:25:51;;;;;;;12.90;8.10;;;;;;;21.72;57.53;96873.86;115935;1188;25931;-83
2021/09/04 10:28:19;;;;;;;13.20;8.80;;;;;;;21.60;57.72;96873.38;115885;1188;25127;-83
2021/09/04 10:30:53;;;;;;;15.50;11.40;;;;;;;21.54;58.28;96867.65;115907;1188;25099;-83
2021/09/04 10:33:26;;;;;;;16.30;11.10;;;;;;;21.42;58.99;96869.15;115913;1191;22872;-84
2021/09/04 10:35:57;;;;;;;16.30;12.30;;;;;;;21.28;59.66;96869.91;115947;1188;25016;-83
2021/09/04 10:38:32;;;;;;;18.10;13.40;;;;;;;21.17;60.14;96873.41;115916;1195;23549;-83
2021/09/04 10:41:22;;;;;;;19.50;13.30;;;;;;;21.08;60.50;96873.05;115846;1191;23956;-84
2021/09/04 10:43:54;;;;;;;19.60;14.70;;;;;;;20.98;60.94;96872.43;115831;1188;32080;-84
2021/09/04 10:46:24;;;;;;;24.50;16.80;;;;;;;21.00;61.04;96874.84;115860;1188;23901;-83
2021/09/04 10:48:59;;;;;;;;;;;;;;;20.81;60.90;96873.17;115887;1188;23032;-83
2021/09/04 10:51:52;;;;;;;24.40;17.50;;;;;;;20.60;61.41;96874.81;115845;1188;36205;-84
2021/09/04 10:55:01;;;;;;;24.70;15.20;;;;;;;20.48;61.76;96872.65;115917;1189;22792;-84
2021/09/04 10:57:45;;;;;;;25.60;16.40;;;;;;;20.67;62.72;96871.88;115910;1187;24211;-84
2021/09/04 11:00:22;;;;;;;22.00;16.10;;;;;;;20.90;62.86;96872.90;115924;1187;25463;-83
2021/09/04 11:02:53;;;;;;;22.20;16.20;;;;;;;21.00;62.79;96873.08;115875;1188;24532;-83
2021/09/04 11:05:46;;;;;;;;;;;;;;;21.01;62.62;96882.58;115934;1188;24529;-84
2021/09/04 11:08:28;;;;;;;27.10;19.20;;;;;;;20.75;61.96;96878.29;115854;1184;24398;-84
2021/09/04 11:11:16;;;;;;;26.50;18.10;;;;;;;20.32;62.76;96874.17;115904;1188;25780;-84
2021/09/04 11:13:45;;;;;;;24.10;18.20;;;;;;;20.10;63.19;96871.75;115848;1187;27131;-83
2021/09/04 11:16:33;;;;;;;25.50;16.70;;;;;;;20.04;63.99;96869.55;115891;1195;24970;-83
2021/09/04 11:19:07;;;;;;;22.60;16.60;;;;;;;20.03;63.99;96867.21;115867;1188;28137;-84
2021/09/04 11:21:47;;;;;;;21.30;15.20;;;;;;;20.20;64.28;96859.84;115895;1188;26218;-84
2021/09/04 11:24:19;;;;;;;23.40;17.20;;;;;;;20.32;64.16;96862.41;115913;1187;33132;-84
2021/09/04 11:26:50;;;;;;;23.60;17.50;;;;;;;20.63;65.12;96861.66;115890;1194;24130;-83
2021/09/04 11:29:17;;;;;;;;;;;;;;;20.88;64.39;96860.98;115888;1188;24758;-84
2021/09/04 11:32:00;;;;;;;24.00;16.90;;;;;;;21.09;64.58;96859.78;115882;1188;24387;-84
2021/09/04 11:34:48;;;;;;;23.30;17.60;;;;;;;21.16;63.72;96859.68;115885;1188;25161;-84